Time;durP1;ratioP1;P1;durP2;ratioP2;P2;SDS_P1;SDS_P2;PMS_P1;PMS_P2;Temp;Humidity;BMP_temperature;BMP_pressure;BME280_temperature;BME280_humidity;BME280_pressure;Samples;Min_cycle;Max_cycle;Signal;HPM_P1;HPM_P2
2023/01/06 00:00:27;;;;;;;1.87;1.20;;;12.40;99.90;;;;;;5073068;28;20426;-71
2023/01/06 00:02:53;;;;;;;1.33;1.10;;;12.30;99.90;;;;;;5072268;28;20200;-71
2023/01/06 00:05:19;;;;;;;1.50;1.20;;;12.20;99.90;;;;;;5072679;28;20167;-71
2023/01/06 00:07:48;;;;;;;1.80;1.30;;;12.20;99.90;;;;;;5072798;28;20264;-71
2023/01/06 00:10:13;;;;;;;3.60;1.33;;;12.40;99.90;;;;;;5072234;28;20511;-71
2023/01/06 00:12:39;;;;;;;1.30;1.00;;;12.30;99.90;;;;;;5072498;28;20860;-71
2023/01/06 00:15:05;;;;;;;1.37;0.93;;;12.50;99.90;;;;;;5071608;28;20178;-72
2023/01/06 00:17:31;;;;;;;1.90;1.30;;;12.40;99.90;;;;;;5071946;28;20185;-71
2023/01/06 00:19:57;;;;;;;1.23;1.00;;;12.50;99.90;;;;;;5072424;28;20425;-71
2023/01/06 00:22:22;;;;;;;1.80;0.90;;;12.60;99.90;;;;;;5072287;28;20195;-71
2023/01/06 00:24:48;;;;;;;1.97;1.13;;;12.60;99.90;;;;;;5072748;28;20482;-70
2023/01/06 00:27:13;;;;;;;2.77;1.27;;;12.60;99.90;;;;;;5072412;28;20201;-71
2023/01/06 00:29:39;;;;;;;1.53;1.27;;;12.60;99.90;;;;;;5054545;28;20173;-71
2023/01/06 00:32:05;;;;;;;1.60;1.00;;;12.60;99.90;;;;;;5072243;28;20170;-71
2023/01/06 00:34:30;;;;;;;1.87;1.13;;;12.60;99.90;;;;;;5072605;28;20542;-71
2023/01/06 00:36:56;;;;;;;1.50;1.27;;;12.60;99.90;;;;;;5072309;28;20562;-71
2023/01/06 00:39:22;;;;;;;2.07;1.27;;;12.50;99.90;;;;;;5072720;28;20732;-71
2023/01/06 00:42:03;;;;;;;1.20;1.00;;;12.50;99.90;;;;;;5072196;28;20244;-71
2023/01/06 00:44:39;;;;;;;1.73;1.00;;;12.50;99.90;;;;;;5072524;28;20388;-71
2023/01/06 00:47:07;;;;;;;2.10;1.20;;;12.70;99.90;;;;;;5071612;28;20468;-71
2023/01/06 00:49:33;;;;;;;1.57;1.20;;;12.60;99.90;;;;;;5072320;28;20773;-71
2023/01/06 00:51:58;;;;;;;1.27;1.00;;;12.70;99.90;;;;;;5072161;28;20425;-71
2023/01/06 00:54:24;;;;;;;1.97;1.10;;;12.80;99.90;;;;;;5072381;28;20185;-71
2023/01/06 00:56:52;;;;;;;1.57;1.47;;;12.80;99.90;;;;;;5071830;28;20237;-71
2023/01/06 00:59:20;;;;;;;2.20;1.13;;;12.80;99.90;;;;;;5072076;28;20774;-71
2023/01/06 01:01:46;;;;;;;1.63;1.37;;;12.70;99.90;;;;;;5071353;28;20926;-71
2023/01/06 01:04:13;;;;;;;1.23;1.00;;;12.80;99.90;;;;;;5071717;28;20930;-71
2023/01/06 01:06:41;;;;;;;1.20;1.00;;;12.70;99.90;;;;;;5072230;28;20464;-71
2023/01/06 01:09:07;;;;;;;1.97;1.03;;;12.60;99.90;;;;;;5057272;28;20405;-71
2023/01/06 01:14:19;;;;;;;1.40;0.90;;;12.70;99.90;;;;;;5076492;28;20155;-71
2023/01/06 01:16:45;;;;;;;1.23;1.07;;;12.80;99.90;;;;;;5056390;28;20447;-71
2023/01/06 01:19:11;;;;;;;1.83;1.17;;;12.60;99.90;;;;;;5075858;28;20502;-72
2023/01/06 01:21:37;;;;;;;1.90;1.37;;;12.50;99.90;;;;;;5076135;28;20412;-71
2023/01/06 01:24:03;;;;;;;1.57;1.30;;;12.40;99.90;;;;;;5076014;28;20415;-71
2023/01/06 01:26:28;;;;;;;1.50;1.00;;;12.20;99.90;;;;;;5075418;28;20459;-71
2023/01/06 01:28:54;;;;;;;2.23;1.27;;;12.20;99.90;;;;;;5075717;28;20593;-71
2023/01/06 01:31:19;;;;;;;1.27;1.00;;;12.30;99.90;;;;;;5057591;28;20174;-71
2023/01/06 01:33:45;;;;;;;2.27;1.33;;;12.40;99.90;;;;;;5075988;28;20625;-72
2023/01/06 01:36:14;;;;;;;1.30;1.00;;;12.40;99.90;;;;;;5063134;28;20176;-71
2023/01/06 01:38:40;;;;;;;1.33;1.10;;;12.40;99.90;;;;;;5055828;28;20190;-71
2023/01/06 01:41:05;;;;;;;1.87;1.20;;;12.30;99.90;;;;;;5058012;28;20410;-71
2023/01/06 01:43:49;;;;;;;2.33;1.30;;;12.20;99.90;;;;;;5055455;28;20409;-71
2023/01/06 01:46:25;;;;;;;1.17;1.03;;;12.30;99.90;;;;;;5065873;28;20203;-72
2023/01/06 01:48:54;;;;;;;1.23;1.13;;;12.30;99.90;;;;;;5075470;28;20389;-71
2023/01/06 01:51:23;;;;;;;2.03;1.57;;;12.40;99.90;;;;;;5075159;28;20948;-71
2023/01/06 01:53:52;;;;;;;1.30;1.20;;;12.40;99.90;;;;;;5075447;28;20409;-71
2023/01/06 01:56:29;;;;;;;2.40;1.10;;;12.30;99.90;;;;;;5075312;28;20406;-70
2023/01/06 01:59:20;;;;;;;1.43;1.10;;;12.40;99.90;;;;;;5057084;28;20406;-70
2023/01/06 02:01:46;;;;;;;2.70;1.20;;;12.40;99.90;;;;;;5073805;28;20412;-70
2023/01/06 02:04:13;;;;;;;1.33;1.23;;;12.40;99.90;;;;;;5075199;28;20899;-70
2023/01/06 02:06:39;;;;;;;1.40;1.03;;;12.50;99.90;;;;;;5074846;28;20455;-70
2023/01/06 02:09:25;;;;;;;1.50;1.00;;;12.50;99.90;;;;;;5074960;28;20400;-70
2023/01/06 02:11:51;;;;;;;1.37;1.27;;;12.60;99.90;;;;;;5074518;28;20381;-70
2023/01/06 02:14:22;;;;;;;1.77;0.80;;;12.50;99.90;;;;;;5074615;28;20476;-70
2023/01/06 02:16:48;;;;;;;1.47;0.87;;;12.60;99.90;;;;;;5072964;28;20197;-70
2023/01/06 02:19:25;;;;;;;0.97;0.87;;;12.50;99.90;;;;;;5073401;28;20908;-71
2023/01/06 02:22:06;;;;;;;2.43;1.73;;;12.50;99.90;;;;;;5075232;28;20151;-71
2023/01/06 02:24:55;;;;;;;1.83;1.03;;;12.60;99.90;;;;;;5074972;28;20382;-70
2023/01/06 02:27:46;;;;;;;2.10;1.10;;;12.70;99.90;;;;;;5056360;28;20463;-71
2023/01/06 02:30:36;;;;;;;2.00;1.00;;;12.60;99.90;;;;;;5074878;28;20389;-71
2023/01/06 02:33:15;;;;;;;1.87;1.20;;;12.70;99.90;;;;;;5074225;28;20404;-71
2023/01/06 02:35:47;;;;;;;2.00;1.47;;;12.90;99.90;;;;;;5074888;28;20865;-71
2023/01/06 02:38:27;;;;;;;1.57;1.10;;;13.00;99.90;;;;;;5074461;28;20427;-72
2023/01/06 02:41:27;;;;;;;1.87;1.20;;;13.10;99.90;;;;;;5074592;28;20695;-70
2023/01/06 02:44:15;;;;;;;1.50;1.00;;;13.10;99.90;;;;;;5021396;28;20417;-70
2023/01/06 02:46:43;;;;;;;1.20;1.03;;;13.00;99.90;;;;;;5073921;28;20474;-74
2023/01/06 02:49:27;;;;;;;1.30;0.80;;;12.90;99.90;;;;;;5073700;28;20396;-71
2023/01/06 02:52:19;;;;;;;2.33;1.00;;;13.00;99.90;;;;;;5073760;28;20453;-71
2023/01/06 02:55:13;;;;;;;0.87;0.77;;;13.00;99.90;;;;;;5074018;28;20381;-71
2023/01/06 02:57:49;;;;;;;1.20;1.00;;;13.10;99.90;;;;;;5074016;28;20413;-70
2023/01/06 03:00:23;;;;;;;1.33;0.93;;;13.20;99.90;;;;;;5073870;28;20384;-71
2023/01/06 03:02:56;;;;;;;1.27;0.90;;;13.10;99.90;;;;;;5055097;28;20775;-71
2023/01/06 03:05:23;;;;;;;3.47;1.30;;;13.10;99.90;;;;;;5056474;28;20816;-71
2023/01/06 03:07:50;;;;;;;1.87;1.30;;;12.90;99.90;;;;;;5073719;28;20847;-71
2023/01/06 03:10:19;;;;;;;1.30;0.80;;;12.90;99.90;;;;;;5073525;28;20982;-71
2023/01/06 03:13:08;;;;;;;1.00;0.80;;;12.70;99.90;;;;;;5073759;28;20922;-70
2023/01/06 03:15:34;;;;;;;1.07;0.80;;;12.80;99.90;;;;;;5074214;28;20381;-70
2023/01/06 03:17:59;;;;;;;1.10;1.00;;;12.90;99.90;;;;;;5072332;28;20532;-71
2023/01/06 03:20:25;;;;;;;1.57;1.10;;;12.90;99.90;;;;;;5074013;28;20403;-71
2023/01/06 03:22:51;;;;;;;1.20;1.00;;;13.00;99.90;;;;;;5073998;28;20165;-71
2023/01/06 03:25:17;;;;;;;0.90;0.80;;;13.10;99.90;;;;;;5071260;28;20171;-72
2023/01/06 03:27:42;;;;;;;1.47;1.17;;;13.10;99.90;;;;;;5053095;28;20247;-71
2023/01/06 03:30:10;;;;;;;0.97;0.83;;;13.10;99.90;;;;;;5053473;28;20433;-71
2023/01/06 03:32:54;;;;;;;0.90;0.77;;;13.00;99.90;;;;;;5037418;28;20174;-71
2023/01/06 03:35:40;;;;;;;1.00;0.90;;;13.10;99.90;;;;;;5053729;28;20729;-71
2023/01/06 03:38:14;;;;;;;1.10;1.00;;;13.00;99.90;;;;;;5052815;28;20430;-71
2023/01/06 03:40:50;;;;;;;1.00;0.80;;;12.90;99.90;;;;;;5035196;28;20408;-71
2023/01/06 03:43:21;;;;;;;0.90;0.83;;;12.90;99.90;;;;;;5052656;28;20402;-71
2023/01/06 03:45:53;;;;;;;1.10;0.70;;;12.70;99.90;;;;;;5052809;28;20389;-71
2023/01/06 03:48:23;;;;;;;1.17;0.93;;;12.60;99.90;;;;;;5067592;28;20482;-70
2023/01/06 03:51:08;;;;;;;1.00;0.90;;;12.60;99.90;;;;;;5073021;28;20806;-71
2023/01/06 03:53:44;;;;;;;1.23;1.00;;;12.50;99.90;;;;;;5058112;28;20424;-70
2023/01/06 03:56:27;;;;;;;1.63;0.80;;;12.50;99.90;;;;;;5072783;28;20861;-71
2023/01/06 03:58:57;;;;;;;1.27;1.17;;;12.40;99.90;;;;;;5072596;28;20385;-71
2023/01/06 04:01:25;;;;;;;1.63;0.87;;;12.30;99.90;;;;;;5071265;28;20428;-70
2023/01/06 04:03:52;;;;;;;1.07;0.97;;;12.20;99.90;;;;;;5053933;28;20504;-71
2023/01/06 04:06:18;;;;;;;1.67;0.90;;;12.20;99.90;;;;;;5072526;28;20444;-71
2023/01/06 04:08:43;;;;;;;1.80;0.87;;;12.10;99.90;;;;;;5072308;28;20913;-71
2023/01/06 04:12:37;;;;;;;1.00;0.90;;;12.10;99.90;;;;;;5072493;28;20542;-71
2023/01/06 04:13:55;;;;;;;1.40;1.10;;;12.10;99.90;;;;;;5071242;28;20219;-70
2023/01/06 04:16:20;;;;;;;2.03;0.90;;;11.80;99.90;;;;;;5072896;28;20436;-70
2023/01/06 04:18:46;;;;;;;1.57;0.90;;;11.80;99.90;;;;;;5071376;28;20546;-71
2023/01/06 04:21:12;;;;;;;2.07;1.20;;;11.90;99.90;;;;;;5072715;28;20181;-71
2023/01/06 04:23:37;;;;;;;0.87;0.80;;;11.80;99.90;;;;;;5072980;28;20188;-70
2023/01/06 04:26:03;;;;;;;1.83;1.20;;;11.80;99.90;;;;;;5072662;28;20212;-71
2023/01/06 04:28:28;;;;;;;1.17;1.00;;;11.90;99.90;;;;;;5073062;28;20211;-71
2023/01/06 04:30:58;;;;;;;1.57;1.10;;;11.90;99.90;;;;;;5072883;28;20169;-71
2023/01/06 04:33:24;;;;;;;1.40;1.30;;;11.90;99.90;;;;;;5072121;28;20257;-70
2023/01/06 04:35:49;;;;;;;1.30;1.17;;;11.90;99.90;;;;;;5072550;28;20426;-71
2023/01/06 04:38:15;;;;;;;3.60;1.23;;;11.80;99.90;;;;;;5072524;28;20193;-70
2023/01/06 04:40:41;;;;;;;1.73;1.43;;;11.80;99.90;;;;;;5072369;28;20179;-71
2023/01/06 04:43:12;;;;;;;2.57;1.47;;;11.80;99.90;;;;;;5075407;28;20603;-70
2023/01/06 04:45:39;;;;;;;2.30;1.20;;;11.70;99.90;;;;;;5076682;28;20741;-71
2023/01/06 04:48:05;;;;;;;1.70;1.40;;;11.60;99.90;;;;;;5076608;28;20430;-70
2023/01/06 04:50:31;;;;;;;3.30;1.80;;;11.50;99.90;;;;;;5076019;28;20459;-71
2023/01/06 04:52:56;;;;;;;2.37;1.50;;;11.50;99.90;;;;;;5076278;28;20484;-71
2023/01/06 04:55:22;;;;;;;2.03;1.30;;;11.50;99.90;;;;;;5076303;28;20170;-70
2023/01/06 04:57:48;;;;;;;1.90;1.70;;;11.50;99.90;;;;;;5076179;28;20298;-70
2023/01/06 05:00:14;;;;;;;5.33;3.20;;;11.60;99.90;;;;;;5076302;28;20418;-70
2023/01/06 05:02:39;;;;;;;3.60;2.30;;;11.60;99.90;;;;;;5076225;28;20171;-70
2023/01/06 05:05:05;;;;;;;2.50;1.90;;;11.50;99.90;;;;;;5057633;28;20421;-71
2023/01/06 05:07:31;;;;;;;4.07;2.70;;;11.60;99.90;;;;;;5076049;28;20198;-70
2023/01/06 05:09:57;;;;;;;9.80;5.80;;;11.70;99.90;;;;;;5075630;28;20926;-71
2023/01/06 05:12:22;;;;;;;3.03;2.33;;;11.70;99.90;;;;;;5057933;28;20189;-71
2023/01/06 05:14:48;;;;;;;3.20;2.23;;;11.70;99.90;;;;;;5075919;28;20582;-70
2023/01/06 05:17:14;;;;;;;2.23;2.03;;;11.80;99.90;;;;;;5057798;28;20206;-71
2023/01/06 05:19:41;;;;;;;2.37;2.10;;;11.80;99.90;;;;;;5071957;28;20192;-71
2023/01/06 05:22:07;;;;;;;2.63;1.67;;;11.60;99.90;;;;;;5056047;28;20413;-71
2023/01/06 05:24:33;;;;;;;3.83;2.07;;;11.70;99.90;;;;;;5056041;28;20816;-70
2023/01/06 05:26:58;;;;;;;3.10;1.97;;;11.80;99.90;;;;;;5057727;28;20561;-71
2023/01/06 05:29:24;;;;;;;2.40;2.20;;;11.80;99.90;;;;;;5073816;28;20184;-71
2023/01/06 05:31:49;;;;;;;4.37;2.13;;;11.70;99.90;;;;;;5075810;28;20174;-71
2023/01/06 05:34:15;;;;;;;3.40;1.90;;;11.80;99.90;;;;;;5075120;28;20169;-69
2023/01/06 05:36:41;;;;;;;2.20;2.00;;;11.80;99.90;;;;;;5075268;28;20225;-70
2023/01/06 05:39:06;;;;;;;2.70;1.67;;;11.70;99.90;;;;;;5075790;28;20199;-70
2023/01/06 05:41:32;;;;;;;2.07;1.80;;;11.80;99.90;;;;;;5075064;28;20170;-70
2023/01/06 05:43:57;;;;;;;2.80;2.13;;;11.80;99.90;;;;;;5074825;28;20174;-70
2023/01/06 05:46:23;;;;;;;1.80;1.70;;;11.80;99.90;;;;;;5074842;28;20216;-70
2023/01/06 05:48:48;;;;;;;2.00;1.80;;;11.80;99.90;;;;;;5074893;28;20641;-72
2023/01/06 05:51:15;;;;;;;2.63;1.80;;;11.50;99.90;;;;;;5075400;28;20531;-71
2023/01/06 05:53:42;;;;;;;1.60;1.47;;;11.60;99.90;;;;;;5075248;28;20659;-71
2023/01/06 05:56:10;;;;;;;1.90;1.53;;;11.60;99.90;;;;;;5074847;28;20440;-71
2023/01/06 05:58:39;;;;;;;2.00;1.50;;;11.60;99.90;;;;;;5074357;28;20838;-71
2023/01/06 06:01:05;;;;;;;4.40;2.27;;;11.70;99.90;;;;;;5056703;28;20413;-71
2023/01/06 06:03:31;;;;;;;2.10;1.90;;;11.80;99.90;;;;;;5074587;28;20510;-71
2023/01/06 06:06:05;;;;;;;1.80;1.40;;;11.40;99.90;;;;;;5056681;28;20529;-71
2023/01/06 06:08:31;;;;;;;2.63;1.90;;;11.50;99.90;;;;;;5056674;28;20438;-71
2023/01/06 06:11:04;;;;;;;2.33;1.80;;;11.50;99.90;;;;;;5074940;28;20404;-71
2023/01/06 06:13:30;;;;;;;1.83;1.73;;;11.60;99.90;;;;;;5056722;28;20922;-70
2023/01/06 06:16:07;;;;;;;1.87;1.53;;;11.60;99.90;;;;;;5074418;28;20418;-71
2023/01/06 06:18:33;;;;;;;1.53;1.43;;;11.80;99.90;;;;;;5073727;28;20449;-71
2023/01/06 06:21:02;;;;;;;1.70;1.60;;;11.70;99.90;;;;;;5074817;28;20769;-71
2023/01/06 06:23:29;;;;;;;2.20;1.50;;;11.80;99.90;;;;;;5075049;28;20423;-70
2023/01/06 06:25:54;;;;;;;1.90;1.77;;;11.90;99.90;;;;;;5074974;28;20494;-71
2023/01/06 06:28:20;;;;;;;1.90;1.60;;;11.90;99.90;;;;;;5074607;28;20864;-71
2023/01/06 06:30:45;;;;;;;2.33;1.40;;;12.00;99.90;;;;;;5074355;28;20167;-69
2023/01/06 06:33:11;;;;;;;1.60;1.50;;;12.10;99.90;;;;;;5074777;28;20172;-71
2023/01/06 06:35:36;;;;;;;2.30;1.60;;;12.20;99.90;;;;;;5056244;28;20212;-70
2023/01/06 06:38:02;;;;;;;2.20;1.53;;;12.20;99.90;;;;;;5074588;28;20186;-71
2023/01/06 06:40:27;;;;;;;1.63;1.37;;;12.10;99.90;;;;;;5074407;28;20171;-70
2023/01/06 06:42:53;;;;;;;2.70;1.57;;;11.90;99.90;;;;;;5074418;28;20166;-71
2023/01/06 06:45:18;;;;;;;1.70;1.50;;;11.90;99.90;;;;;;5055761;28;20170;-71
2023/01/06 06:47:44;;;;;;;1.80;1.53;;;11.90;99.90;;;;;;5055779;28;20254;-70
2023/01/06 06:50:10;;;;;;;1.80;1.40;;;12.00;99.90;;;;;;5073459;28;20270;-71
2023/01/06 06:52:36;;;;;;;1.50;1.40;;;12.10;99.90;;;;;;5073705;28;20244;-70
2023/01/06 06:55:02;;;;;;;1.50;1.10;;;12.10;99.90;;;;;;5073938;28;20555;-70
2023/01/06 06:57:27;;;;;;;1.97;1.77;;;12.20;99.90;;;;;;5055632;28;20300;-69
2023/01/06 06:59:53;;;;;;;2.50;1.80;;;12.00;99.90;;;;;;5055688;28;20509;-70
2023/01/06 07:02:19;;;;;;;1.50;1.40;;;11.90;99.90;;;;;;5074042;28;20199;-70
2023/01/06 07:04:44;;;;;;;1.67;1.50;;;11.90;99.90;;;;;;5072821;28;20183;-70
2023/01/06 07:07:10;;;;;;;1.97;1.80;;;12.10;99.90;;;;;;5073413;28;20222;-71
2023/01/06 07:09:35;;;;;;;1.30;1.20;;;12.10;99.90;;;;;;5073321;28;20162;-70
2023/01/06 07:12:01;;;;;;;1.50;1.00;;;12.20;99.90;;;;;;5073606;28;20634;-70
2023/01/06 07:14:27;;;;;;;1.33;1.23;;;12.20;99.90;;;;;;5073465;28;20164;-70
2023/01/06 07:16:53;;;;;;;1.20;1.10;;;12.30;99.90;;;;;;5072894;28;20431;-70
2023/01/06 07:19:18;;;;;;;1.20;1.10;;;12.20;99.90;;;;;;5070769;28;20178;-72
2023/01/06 07:21:44;;;;;;;1.00;0.90;;;12.20;99.90;;;;;;5056535;28;20174;-72
2023/01/06 07:24:09;;;;;;;3.53;1.67;;;12.20;99.90;;;;;;5071366;28;20231;-71
2023/01/06 07:26:35;;;;;;;3.90;1.00;;;12.30;99.90;;;;;;5073587;28;20559;-70
2023/01/06 07:29:00;;;;;;;2.17;1.27;;;12.40;99.90;;;;;;5073750;28;20159;-70
2023/01/06 07:31:26;;;;;;;1.87;1.30;;;12.50;99.90;;;;;;5055385;28;20282;-71
2023/01/06 07:33:52;;;;;;;1.20;1.10;;;12.60;99.90;;;;;;5073324;28;20173;-71
2023/01/06 07:36:17;;;;;;;1.20;1.10;;;12.70;99.90;;;;;;5073374;28;20675;-71
2023/01/06 07:38:43;;;;;;;1.60;1.50;;;12.60;99.90;;;;;;5073019;28;20417;-70
2023/01/06 07:41:08;;;;;;;2.10;1.63;;;12.60;99.90;;;;;;5072418;28;20674;-71
2023/01/06 07:43:34;;;;;;;1.40;1.30;;;12.50;99.90;;;;;;5073084;28;20579;-71
2023/01/06 07:46:00;;;;;;;2.67;2.23;;;12.40;99.90;;;;;;5072851;28;20195;-71
2023/01/06 07:48:25;;;;;;;4.43;3.27;;;12.40;99.90;;;;;;5072823;28;20237;-71
2023/01/06 07:50:51;;;;;;;5.60;3.57;;;12.40;99.90;;;;;;5072486;28;20177;-71
2023/01/06 07:53:16;;;;;;;2.37;2.03;;;12.30;99.90;;;;;;5072475;28;20248;-71
2023/01/06 07:55:49;;;;;;;4.00;2.47;;;12.20;99.90;;;;;;5072484;28;20192;-71
2023/01/06 07:58:15;;;;;;;2.10;1.40;;;12.20;99.90;;;;;;5072575;28;20187;-71
2023/01/06 08:00:40;;;;;;;1.77;1.40;;;12.00;99.90;;;;;;5072170;28;20462;-71
2023/01/06 08:03:07;;;;;;;8.47;4.37;;;11.90;99.90;;;;;;5072202;28;20644;-71
2023/01/06 08:05:40;;;;;;;7.30;4.23;;;11.90;99.90;;;;;;5071942;28;20520;-71
2023/01/06 08:08:06;;;;;;;8.40;4.73;;;12.10;99.90;;;;;;5072208;28;20434;-70
2023/01/06 08:10:32;;;;;;;1.63;1.53;;;12.20;99.90;;;;;;5072096;28;20418;-70
2023/01/06 08:12:58;;;;;;;19.73;9.50;;;12.00;99.90;;;;;;5072146;28;20742;-71
2023/01/06 08:15:24;;;;;;;5.07;3.57;;;12.10;99.90;;;;;;5072130;28;20384;-69
2023/01/06 08:17:53;;;;;;;1.80;1.60;;;12.20;99.90;;;;;;5071101;28;20665;-70
2023/01/06 08:20:19;;;;;;;1.80;1.60;;;12.00;99.90;;;;;;5070823;28;20531;-70
2023/01/06 08:22:45;;;;;;;3.23;1.30;;;11.90;99.90;;;;;;5072117;28;20412;-70
2023/01/06 08:25:10;;;;;;;4.97;2.03;;;11.70;99.90;;;;;;5054544;28;20740;-71
2023/01/06 08:27:36;;;;;;;2.57;1.33;;;11.90;99.90;;;;;;5072149;28;20652;-70
2023/01/06 08:30:02;;;;;;;2.03;1.53;;;11.90;99.90;;;;;;5072405;28;20175;-70
2023/01/06 08:32:28;;;;;;;4.07;1.70;;;12.10;99.90;;;;;;5072412;28;20177;-71
2023/01/06 08:34:53;;;;;;;2.83;1.93;;;12.20;99.90;;;;;;5071105;28;20431;-70
2023/01/06 08:37:19;;;;;;;1.80;1.70;;;12.40;99.90;;;;;;5072371;28;20746;-70
2023/01/06 08:39:44;;;;;;;1.70;1.60;;;12.50;99.90;;;;;;5054219;28;20180;-71
2023/01/06 08:42:10;;;;;;;1.77;1.50;;;12.60;99.90;;;;;;5072366;28;20253;-71
2023/01/06 08:44:36;;;;;;;2.30;1.70;;;12.40;99.90;;;;;;5054940;28;20177;-69
2023/01/06 08:47:01;;;;;;;2.53;1.87;;;12.30;99.90;;;;;;5071396;28;20205;-70
2023/01/06 08:49:27;;;;;;;1.70;1.60;;;12.30;99.90;;;;;;5072176;28;20193;-70
2023/01/06 08:51:52;;;;;;;1.80;1.37;;;12.40;99.90;;;;;;5072198;28;20625;-70
2023/01/06 08:54:18;;;;;;;1.63;1.53;;;12.20;99.90;;;;;;5071992;28;20665;-70
2023/01/06 08:56:44;;;;;;;1.40;1.30;;;12.10;99.90;;;;;;5054104;28;20245;-70
2023/01/06 08:59:13;;;;;;;1.73;1.60;;;12.10;99.90;;;;;;5071673;28;20177;-71
2023/01/06 09:01:39;;;;;;;1.70;1.60;;;12.20;99.90;;;;;;5071750;28;20184;-72
2023/01/06 09:04:07;;;;;;;1.13;1.03;;;11.90;99.90;;;;;;5071386;28;20405;-70
2023/01/06 09:06:33;;;;;;;1.50;1.30;;;11.90;99.90;;;;;;5053595;28;20194;-70
2023/01/06 09:08:59;;;;;;;2.30;1.70;;;11.80;99.90;;;;;;5071589;28;20419;-71
2023/01/06 09:11:25;;;;;;;1.63;1.47;;;11.60;99.90;;;;;;5072218;28;20397;-70
2023/01/06 09:13:51;;;;;;;1.87;1.13;;;11.70;99.90;;;;;;5071629;28;20768;-71
2023/01/06 09:16:18;;;;;;;1.33;1.23;;;11.70;99.90;;;;;;5071510;28;20659;-71
2023/01/06 09:18:48;;;;;;;1.73;1.20;;;11.70;99.90;;;;;;5071577;28;20439;-70
2023/01/06 09:21:15;;;;;;;1.00;0.90;;;11.90;99.90;;;;;;5071504;28;20442;-70
2023/01/06 09:23:40;;;;;;;1.10;1.00;;;11.80;99.90;;;;;;5043202;28;20569;-69
2023/01/06 09:26:06;;;;;;;1.33;1.13;;;11.80;99.90;;;;;;5051997;28;20861;-71
2023/01/06 09:28:31;;;;;;;1.10;0.80;;;12.00;99.90;;;;;;5062007;28;20207;-71
2023/01/06 09:30:57;;;;;;;1.27;1.17;;;12.20;99.90;;;;;;5075384;28;20643;-71
2023/01/06 09:33:23;;;;;;;4.10;1.07;;;12.20;99.90;;;;;;5075135;28;20539;-71
2023/01/06 09:35:48;;;;;;;1.13;0.90;;;12.30;99.90;;;;;;5075561;28;20227;-71
2023/01/06 09:38:15;;;;;;;2.80;1.43;;;12.20;99.90;;;;;;5074007;28;20197;-69
2023/01/06 09:41:11;;;;;;;1.17;1.00;;;12.40;99.90;;;;;;5074984;28;20192;-70
2023/01/06 09:44:08;;;;;;;1.50;0.97;;;12.50;99.90;;;;;;5061591;28;20422;-69
2023/01/06 09:46:38;;;;;;;1.13;0.93;;;12.40;99.90;;;;;;5075339;28;20425;-70
2023/01/06 09:49:24;;;;;;;1.50;1.00;;;12.40;99.90;;;;;;5075187;28;20394;-70
2023/01/06 09:51:52;;;;;;;1.00;0.80;;;12.40;99.90;;;;;;5075163;28;20386;-70
2023/01/06 09:54:42;;;;;;;1.30;1.20;;;12.60;99.90;;;;;;5074543;28;20408;-70
2023/01/06 09:57:20;;;;;;;0.70;0.60;;;12.90;99.90;;;;;;5074809;28;20424;-70
2023/01/06 09:59:53;;;;;;;2.07;1.87;;;12.80;99.90;;;;;;5075093;28;20881;-69
2023/01/06 10:02:45;;;;;;;1.23;1.00;;;13.00;99.90;;;;;;5074910;28;20399;-70
2023/01/06 10:05:28;;;;;;;1.03;0.90;;;13.20;99.90;;;;;;5075039;28;20385;-70
2023/01/06 10:08:12;;;;;;;1.83;1.00;;;13.20;99.90;;;;;;5074958;28;20450;-70
2023/01/06 10:10:49;;;;;;;0.90;0.70;;;13.50;99.90;;;;;;5074553;28;20399;-70
2023/01/06 10:13:39;;;;;;;1.30;0.80;;;13.50;99.90;;;;;;5075045;28;20463;-69
2023/01/06 10:16:11;;;;;;;1.20;1.00;;;13.50;99.90;;;;;;5074557;28;20799;-69
2023/01/06 10:19:05;;;;;;;2.40;1.40;;;13.40;99.90;;;;;;5074645;28;20470;-70
2023/01/06 10:21:55;;;;;;;5.10;3.30;;;13.60;99.90;;;;;;5049269;28;20900;-69
2023/01/06 10:24:35;;;;;;;1.30;0.93;;;13.70;99.90;;;;;;5074242;28;20392;-70
2023/01/06 10:27:34;;;;;;;1.20;0.80;;;13.60;99.90;;;;;;5074782;28;20523;-67
2023/01/06 10:30:02;;;;;;;1.23;0.80;;;13.60;99.90;;;;;;5074700;28;20384;-69
2023/01/06 10:32:31;;;;;;;1.30;1.10;;;13.60;99.90;;;;;;5073840;28;20477;-69
2023/01/06 10:34:58;;;;;;;4.83;1.43;;;13.90;99.90;;;;;;5074574;28;20162;-71
2023/01/06 10:37:38;;;;;;;1.93;0.70;;;14.00;99.90;;;;;;5074317;28;20427;-67
2023/01/06 10:40:16;;;;;;;1.20;0.83;;;14.10;99.90;;;;;;5071358;28;20426;-69
2023/01/06 10:43:07;;;;;;;1.03;0.70;;;14.10;99.90;;;;;;5073892;28;20498;-70
2023/01/06 10:45:38;;;;;;;1.53;1.03;;;14.00;99.90;;;;;;5073776;28;20395;-70
2023/01/06 10:48:09;;;;;;;0.80;0.60;;;13.60;99.90;;;;;;5074165;28;21044;-69
2023/01/06 10:50:34;;;;;;;0.80;0.60;;;13.90;99.90;;;;;;5074292;28;20388;-69
2023/01/06 10:53:00;;;;;;;0.80;0.60;;;13.70;99.90;;;;;;5073622;28;20400;-69
2023/01/06 10:55:40;;;;;;;0.90;0.80;;;13.50;99.90;;;;;;5073469;28;20269;-68
2023/01/06 10:58:36;;;;;;;1.03;0.90;;;13.50;99.90;;;;;;5072607;28;20194;-70
2023/01/06 11:01:17;;;;;;;1.10;0.80;;;13.60;99.90;;;;;;5073586;28;20866;-71
2023/01/06 11:03:44;;;;;;;0.90;0.70;;;13.60;99.90;;;;;;5073717;28;20478;-70
2023/01/06 11:06:26;;;;;;;1.03;0.70;;;13.30;99.90;;;;;;5073657;28;20543;-69
2023/01/06 11:08:52;;;;;;;1.20;0.80;;;13.30;99.90;;;;;;5055414;28;20497;-69
2023/01/06 11:11:19;;;;;;;1.43;0.80;;;13.20;99.90;;;;;;5055508;28;20438;-69
2023/01/06 11:14:15;;;;;;;0.80;0.60;;;13.40;99.90;;;;;;5073503;28;20408;-70
2023/01/06 11:16:40;;;;;;;1.10;0.83;;;13.30;99.90;;;;;;5072069;28;20946;-69
2023/01/06 11:19:19;;;;;;;1.63;0.90;;;13.10;99.90;;;;;;5073201;28;20408;-70
2023/01/06 11:21:46;;;;;;;0.80;0.70;;;13.40;99.90;;;;;;5064954;28;20158;-70
2023/01/06 11:24:25;;;;;;;0.70;0.50;;;13.50;99.90;;;;;;5052640;28;20483;-70
2023/01/06 11:27:00;;;;;;;2.30;0.70;;;13.60;99.90;;;;;;5053279;28;20556;-69
2023/01/06 11:29:34;;;;;;;1.97;0.77;;;13.90;99.90;;;;;;5066794;28;20408;-70
2023/01/06 11:32:05;;;;;;;1.00;0.80;;;14.10;99.90;;;;;;5072943;28;20472;-70
2023/01/06 11:34:31;;;;;;;1.23;0.80;;;14.00;99.90;;;;;;5073131;28;20403;-69
2023/01/06 11:36:57;;;;;;;1.13;0.70;;;14.20;99.90;;;;;;5072729;28;20435;-69
2023/01/06 11:39:29;;;;;;;0.80;0.60;;;14.10;99.90;;;;;;5071447;28;20438;-69
2023/01/06 11:42:01;;;;;;;1.20;0.60;;;14.20;99.90;;;;;;5074179;28;20387;-67
2023/01/06 11:44:35;;;;;;;0.93;0.50;;;14.00;99.90;;;;;;5073347;28;20404;-69
2023/01/06 11:47:19;;;;;;;0.90;0.60;;;14.10;99.90;;;;;;5073258;28;20459;-70
2023/01/06 11:49:53;;;;;;;1.43;0.63;;;14.40;99.90;;;;;;5073202;28;20375;-69
2023/01/06 11:52:26;;;;;;;0.80;0.60;;;14.20;99.90;;;;;;5072581;28;20378;-69
2023/01/06 11:55:00;;;;;;;1.23;0.60;;;14.10;99.90;;;;;;5072125;28;20404;-69
2023/01/06 11:57:47;;;;;;;0.80;0.60;;;14.20;99.90;;;;;;5072566;28;20436;-68
2023/01/06 12:00:34;;;;;;;0.70;0.50;;;14.20;99.90;;;;;;5072832;28;20772;-69
2023/01/06 12:03:18;;;;;;;0.90;0.60;;;14.30;99.90;;;;;;5072898;28;20830;-69
2023/01/06 12:06:13;;;;;;;0.80;0.60;;;14.20;99.90;;;;;;5073057;28;20517;-69
2023/01/06 12:09:02;;;;;;;0.90;0.60;;;14.10;99.90;;;;;;5054652;28;20540;-69
2023/01/06 12:11:31;;;;;;;0.80;0.60;;;14.00;99.90;;;;;;5072292;28;20825;-69
2023/01/06 12:13:57;;;;;;;1.10;0.80;;;14.10;99.90;;;;;;5073124;28;20398;-69
2023/01/06 12:16:47;;;;;;;0.83;0.60;;;14.50;99.90;;;;;;5072697;28;20404;-69
2023/01/06 12:19:22;;;;;;;1.20;0.80;;;14.40;99.90;;;;;;5072132;28;20415;-69
2023/01/06 12:21:49;;;;;;;1.20;0.70;;;14.20;99.90;;;;;;5072660;28;20380;-69
2023/01/06 12:24:18;;;;;;;1.43;0.70;;;14.40;99.90;;;;;;5071525;28;20448;-69
2023/01/06 12:26:44;;;;;;;1.10;0.90;;;14.50;99.90;;;;;;5072036;28;20570;-69
2023/01/06 12:29:16;;;;;;;1.00;0.70;;;14.20;99.90;;;;;;5071900;28;20515;-69
2023/01/06 12:31:53;;;;;;;0.80;0.60;;;14.30;99.90;;;;;;5072138;28;20849;-69
2023/01/06 12:34:26;;;;;;;1.10;0.70;;;14.00;99.90;;;;;;5071887;28;20484;-68
2023/01/06 12:37:18;;;;;;;1.00;0.60;;;13.90;99.90;;;;;;5071663;28;20427;-69
2023/01/06 12:40:11;;;;;;;0.83;0.60;;;13.90;99.90;;;;;;5070256;28;20989;-69
2023/01/06 12:42:48;;;;;;;1.30;0.70;;;13.80;99.90;;;;;;5071679;28;20490;-69
2023/01/06 12:45:29;;;;;;;0.97;0.73;;;14.00;99.90;;;;;;5072043;28;20395;-69
2023/01/06 12:47:56;;;;;;;0.80;0.60;;;14.00;99.90;;;;;;5072020;28;20460;-69
2023/01/06 12:50:43;;;;;;;0.80;0.50;;;14.10;99.90;;;;;;5071949;28;20415;-69
2023/01/06 12:53:11;;;;;;;0.90;0.60;;;14.20;99.90;;;;;;5053893;28;20406;-68
2023/01/06 12:55:48;;;;;;;0.83;0.60;;;14.30;99.90;;;;;;5071324;28;20402;-69
2023/01/06 12:58:27;;;;;;;2.00;1.27;;;14.30;99.90;;;;;;5071774;28;20422;-69
2023/01/06 13:01:00;;;;;;;2.47;1.60;;;14.30;99.90;;;;;;5071921;28;20385;-69
2023/01/06 13:03:49;;;;;;;3.30;2.40;;;14.20;99.90;;;;;;5073890;28;20394;-69
2023/01/06 13:06:27;;;;;;;1.30;1.20;;;14.00;99.90;;;;;;5075978;28;20441;-69
2023/01/06 13:09:24;;;;;;;5.90;3.70;;;13.90;99.90;;;;;;5075969;28;20885;-69